sensor_id;sensor_type;location;lat;lon;timestamp;P1;durP1;ratioP1;P2;durP2;ratioP2
9374;SDS011;4727;51.202;6.344;2023-10-13T00:00:45;5.97;;;4.47;;
9374;SDS011;4727;51.202;6.344;2023-10-13T00:03:12;6.20;;;5.17;;
9374;SDS011;4727;51.202;6.344;2023-10-13T00:05:41;13.37;;;5.37;;
9374;SDS011;4727;51.202;6.344;2023-10-13T00:08:08;7.57;;;5.20;;
9374;SDS011;4727;51.202;6.344;2023-10-13T00:10:34;7.00;;;4.87;;
9374;SDS011;4727;51.202;6.344;2023-10-13T00:13:00;6.03;;;5.00;;
9374;SDS011;4727;51.202;6.344;2023-10-13T00:15:41;7.10;;;5.23;;
9374;SDS011;4727;51.202;6.344;2023-10-13T00:18:21;7.63;;;4.77;;
9374;SDS011;4727;51.202;6.344;2023-10-13T00:20:48;10.50;;;5.47;;
9374;SDS011;4727;51.202;6.344;2023-10-13T00:23:15;10.57;;;5.23;;
9374;SDS011;4727;51.202;6.344;2023-10-13T00:25:49;6.73;;;4.90;;
9374;SDS011;4727;51.202;6.344;2023-10-13T00:28:16;6.23;;;4.67;;
9374;SDS011;4727;51.202;6.344;2023-10-13T00:30:51;5.40;;;4.83;;
9374;SDS011;4727;51.202;6.344;2023-10-13T00:33:24;4.80;;;4.17;;
9374;SDS011;4727;51.202;6.344;2023-10-13T00:35:50;7.10;;;4.93;;
9374;SDS011;4727;51.202;6.344;2023-10-13T00:38:19;6.47;;;4.60;;
9374;SDS011;4727;51.202;6.344;2023-10-13T00:40:45;5.57;;;3.97;;
9374;SDS011;4727;51.202;6.344;2023-10-13T00:43:18;8.70;;;5.30;;
9374;SDS011;4727;51.202;6.344;2023-10-13T00:45:44;7.07;;;5.27;;
9374;SDS011;4727;51.202;6.344;2023-10-13T00:48:24;8.40;;;4.60;;
9374;SDS011;4727;51.202;6.344;2023-10-13T00:50:55;7.63;;;5.23;;
9374;SDS011;4727;51.202;6.344;2023-10-13T00:53:22;7.30;;;5.10;;
9374;SDS011;4727;51.202;6.344;2023-10-13T00:55:50;6.37;;;4.43;;
9374;SDS011;4727;51.202;6.344;2023-10-13T00:58:16;6.43;;;5.10;;
9374;SDS011;4727;51.202;6.344;2023-10-13T01:00:47;7.10;;;4.93;;
9374;SDS011;4727;51.202;6.344;2023-10-13T01:03:22;6.73;;;4.60;;
9374;SDS011;4727;51.202;6.344;2023-10-13T01:05:55;6.80;;;5.27;;
9374;SDS011;4727;51.202;6.344;2023-10-13T01:08:36;4.83;;;4.43;;
9374;SDS011;4727;51.202;6.344;2023-10-13T01:11:02;9.73;;;5.57;;
9374;SDS011;4727;51.202;6.344;2023-10-13T01:13:32;7.93;;;5.53;;
9374;SDS011;4727;51.202;6.344;2023-10-13T01:16:01;6.00;;;4.53;;
9374;SDS011;4727;51.202;6.344;2023-10-13T01:18:27;9.80;;;4.83;;
9374;SDS011;4727;51.202;6.344;2023-10-13T01:20:54;8.93;;;5.20;;
9374;SDS011;4727;51.202;6.344;2023-10-13T01:23:24;5.23;;;4.83;;
9374;SDS011;4727;51.202;6.344;2023-10-13T01:25:53;8.13;;;5.20;;
9374;SDS011;4727;51.202;6.344;2023-10-13T01:28:21;5.97;;;4.60;;
9374;SDS011;4727;51.202;6.344;2023-10-13T01:30:47;8.67;;;4.90;;
9374;SDS011;4727;51.202;6.344;2023-10-13T01:33:17;6.33;;;4.60;;
9374;SDS011;4727;51.202;6.344;2023-10-13T01:35:51;6.23;;;4.57;;
9374;SDS011;4727;51.202;6.344;2023-10-13T01:38:18;4.60;;;4.10;;
9374;SDS011;4727;51.202;6.344;2023-10-13T01:40:43;6.60;;;5.30;;
9374;SDS011;4727;51.202;6.344;2023-10-13T01:43:09;7.53;;;4.90;;
9374;SDS011;4727;51.202;6.344;2023-10-13T01:45:39;5.13;;;4.57;;
9374;SDS011;4727;51.202;6.344;2023-10-13T01:48:12;8.03;;;4.60;;
9374;SDS011;4727;51.202;6.344;2023-10-13T01:50:41;5.33;;;4.77;;
9374;SDS011;4727;51.202;6.344;2023-10-13T01:53:07;7.53;;;4.63;;
9374;SDS011;4727;51.202;6.344;2023-10-13T01:55:40;7.30;;;4.60;;
9374;SDS011;4727;51.202;6.344;2023-10-13T01:58:09;6.80;;;4.73;;
9374;SDS011;4727;51.202;6.344;2023-10-13T02:00:43;6.63;;;5.20;;
9374;SDS011;4727;51.202;6.344;2023-10-13T02:03:10;8.60;;;4.63;;
9374;SDS011;4727;51.202;6.344;2023-10-13T02:05:48;9.13;;;5.27;;
9374;SDS011;4727;51.202;6.344;2023-10-13T02:08:18;8.57;;;4.70;;
9374;SDS011;4727;51.202;6.344;2023-10-13T02:10:49;8.13;;;4.83;;
9374;SDS011;4727;51.202;6.344;2023-10-13T02:13:19;6.00;;;4.90;;
9374;SDS011;4727;51.202;6.344;2023-10-13T02:15:48;6.43;;;4.67;;
9374;SDS011;4727;51.202;6.344;2023-10-13T02:18:17;7.40;;;5.10;;
9374;SDS011;4727;51.202;6.344;2023-10-13T02:20:51;10.13;;;4.80;;
9374;SDS011;4727;51.202;6.344;2023-10-13T02:23:25;7.90;;;5.20;;
9374;SDS011;4727;51.202;6.344;2023-10-13T02:25:54;7.33;;;4.67;;
9374;SDS011;4727;51.202;6.344;2023-10-13T02:28:26;8.50;;;5.63;;
9374;SDS011;4727;51.202;6.344;2023-10-13T02:30:55;8.07;;;5.40;;
9374;SDS011;4727;51.202;6.344;2023-10-13T02:33:22;9.70;;;4.73;;
9374;SDS011;4727;51.202;6.344;2023-10-13T02:36:00;6.90;;;5.90;;
9374;SDS011;4727;51.202;6.344;2023-10-13T02:38:31;10.23;;;5.80;;
9374;SDS011;4727;51.202;6.344;2023-10-13T02:41:11;10.67;;;5.17;;
9374;SDS011;4727;51.202;6.344;2023-10-13T02:43:54;7.53;;;5.10;;
9374;SDS011;4727;51.202;6.344;2023-10-13T02:46:20;11.73;;;5.70;;
9374;SDS011;4727;51.202;6.344;2023-10-13T02:48:55;9.20;;;6.07;;
9374;SDS011;4727;51.202;6.344;2023-10-13T02:51:26;7.97;;;5.37;;
9374;SDS011;4727;51.202;6.344;2023-10-13T02:54:02;8.37;;;5.43;;
9374;SDS011;4727;51.202;6.344;2023-10-13T02:56:33;7.27;;;5.20;;
9374;SDS011;4727;51.202;6.344;2023-10-13T02:59:00;5.77;;;4.90;;
9374;SDS011;4727;51.202;6.344;2023-10-13T03:01:30;10.60;;;5.73;;
9374;SDS011;4727;51.202;6.344;2023-10-13T03:03:59;7.27;;;5.40;;
9374;SDS011;4727;51.202;6.344;2023-10-13T03:06:25;13.90;;;6.03;;
9374;SDS011;4727;51.202;6.344;2023-10-13T03:09:03;9.40;;;5.50;;
9374;SDS011;4727;51.202;6.344;2023-10-13T03:11:43;7.80;;;5.57;;
9374;SDS011;4727;51.202;6.344;2023-10-13T03:14:19;9.70;;;5.77;;
9374;SDS011;4727;51.202;6.344;2023-10-13T03:16:56;12.37;;;6.27;;
9374;SDS011;4727;51.202;6.344;2023-10-13T03:19:27;11.70;;;5.60;;
9374;SDS011;4727;51.202;6.344;2023-10-13T03:21:58;7.77;;;5.53;;
9374;SDS011;4727;51.202;6.344;2023-10-13T03:24:42;6.80;;;5.50;;
9374;SDS011;4727;51.202;6.344;2023-10-13T03:27:20;7.33;;;5.23;;
9374;SDS011;4727;51.202;6.344;2023-10-13T03:29:49;8.23;;;5.47;;
9374;SDS011;4727;51.202;6.344;2023-10-13T03:32:21;5.70;;;5.20;;
9374;SDS011;4727;51.202;6.344;2023-10-13T03:34:47;7.27;;;5.53;;
9374;SDS011;4727;51.202;6.344;2023-10-13T03:37:37;6.87;;;4.97;;
9374;SDS011;4727;51.202;6.344;2023-10-13T03:40:09;8.23;;;5.90;;
9374;SDS011;4727;51.202;6.344;2023-10-13T03:42:45;8.13;;;5.47;;
9374;SDS011;4727;51.202;6.344;2023-10-13T03:45:23;9.70;;;5.27;;
9374;SDS011;4727;51.202;6.344;2023-10-13T03:47:52;7.73;;;5.47;;
9374;SDS011;4727;51.202;6.344;2023-10-13T03:50:19;6.37;;;4.93;;
9374;SDS011;4727;51.202;6.344;2023-10-13T03:52:57;10.47;;;5.57;;
9374;SDS011;4727;51.202;6.344;2023-10-13T03:55:23;8.10;;;5.60;;
9374;SDS011;4727;51.202;6.344;2023-10-13T03:57:52;8.00;;;5.27;;
9374;SDS011;4727;51.202;6.344;2023-10-13T04:00:19;6.77;;;5.33;;
9374;SDS011;4727;51.202;6.344;2023-10-13T04:02:52;9.47;;;5.73;;
9374;SDS011;4727;51.202;6.344;2023-10-13T04:05:27;9.83;;;5.40;;
9374;SDS011;4727;51.202;6.344;2023-10-13T04:08:02;8.63;;;5.60;;
9374;SDS011;4727;51.202;6.344;2023-10-13T04:10:47;8.10;;;4.80;;
9374;SDS011;4727;51.202;6.344;2023-10-13T04:13:19;7.90;;;5.37;;
9374;SDS011;4727;51.202;6.344;2023-10-13T04:16:04;6.63;;;5.63;;
9374;SDS011;4727;51.202;6.344;2023-10-13T04:18:47;5.87;;;4.73;;
9374;SDS011;4727;51.202;6.344;2023-10-13T04:21:24;8.70;;;5.27;;
9374;SDS011;4727;51.202;6.344;2023-10-13T04:24:10;6.47;;;4.73;;
9374;SDS011;4727;51.202;6.344;2023-10-13T04:26:43;14.10;;;5.40;;
9374;SDS011;4727;51.202;6.344;2023-10-13T04:29:35;9.63;;;5.20;;
9374;SDS011;4727;51.202;6.344;2023-10-13T04:32:13;10.03;;;5.10;;
9374;SDS011;4727;51.202;6.344;2023-10-13T04:34:40;8.13;;;4.60;;
9374;SDS011;4727;51.202;6.344;2023-10-13T04:37:13;6.60;;;4.70;;
9374;SDS011;4727;51.202;6.344;2023-10-13T04:39:55;6.90;;;3.93;;
9374;SDS011;4727;51.202;6.344;2023-10-13T04:42:36;7.60;;;4.70;;
9374;SDS011;4727;51.202;6.344;2023-10-13T04:45:15;7.07;;;4.80;;
9374;SDS011;4727;51.202;6.344;2023-10-13T04:48:01;5.17;;;4.63;;
9374;SDS011;4727;51.202;6.344;2023-10-13T04:50:47;6.87;;;3.90;;
9374;SDS011;4727;51.202;6.344;2023-10-13T04:53:17;5.20;;;4.27;;
9374;SDS011;4727;51.202;6.344;2023-10-13T04:55:58;6.70;;;4.13;;
9374;SDS011;4727;51.202;6.344;2023-10-13T04:58:33;7.53;;;4.30;;
9374;SDS011;4727;51.202;6.344;2023-10-13T05:01:02;4.97;;;4.10;;
9374;SDS011;4727;51.202;6.344;2023-10-13T05:03:46;4.63;;;3.97;;
9374;SDS011;4727;51.202;6.344;2023-10-13T05:06:46;4.33;;;3.67;;
9374;SDS011;4727;51.202;6.344;2023-10-13T05:09:12;5.53;;;4.40;;
9374;SDS011;4727;51.202;6.344;2023-10-13T05:11:57;4.93;;;3.53;;
9374;SDS011;4727;51.202;6.344;2023-10-13T05:14:41;5.03;;;4.33;;
9374;SDS011;4727;51.202;6.344;2023-10-13T05:17:25;6.47;;;3.70;;
9374;SDS011;4727;51.202;6.344;2023-10-13T05:20:10;5.50;;;3.57;;
9374;SDS011;4727;51.202;6.344;2023-10-13T05:22:54;4.43;;;3.83;;
9374;SDS011;4727;51.202;6.344;2023-10-13T05:25:38;6.30;;;3.47;;
9374;SDS011;4727;51.202;6.344;2023-10-13T05:28:23;4.30;;;3.10;;
9374;SDS011;4727;51.202;6.344;2023-10-13T05:31:07;8.33;;;5.03;;
9374;SDS011;4727;51.202;6.344;2023-10-13T05:33:52;5.93;;;4.53;;
9374;SDS011;4727;51.202;6.344;2023-10-13T05:36:36;4.77;;;4.33;;
9374;SDS011;4727;51.202;6.344;2023-10-13T05:39:21;9.10;;;4.00;;
9374;SDS011;4727;51.202;6.344;2023-10-13T05:42:06;4.97;;;3.67;;
9374;SDS011;4727;51.202;6.344;2023-10-13T05:44:50;6.33;;;3.90;;
9374;SDS011;4727;51.202;6.344;2023-10-13T05:47:34;5.23;;;3.10;;
9374;SDS011;4727;51.202;6.344;2023-10-13T05:50:03;3.50;;;3.20;;
9374;SDS011;4727;51.202;6.344;2023-10-13T05:52:38;5.67;;;3.60;;
9374;SDS011;4727;51.202;6.344;2023-10-13T05:55:22;4.77;;;3.47;;
9374;SDS011;4727;51.202;6.344;2023-10-13T05:58:10;3.00;;;2.80;;
9374;SDS011;4727;51.202;6.344;2023-10-13T06:00:55;6.43;;;3.87;;
9374;SDS011;4727;51.202;6.344;2023-10-13T06:03:40;8.77;;;3.40;;
9374;SDS011;4727;51.202;6.344;2023-10-13T06:06:24;5.33;;;3.47;;
9374;SDS011;4727;51.202;6.344;2023-10-13T06:09:08;7.07;;;4.03;;
9374;SDS011;4727;51.202;6.344;2023-10-13T06:11:53;7.30;;;3.33;;
9374;SDS011;4727;51.202;6.344;2023-10-13T06:14:37;6.10;;;3.50;;
9374;SDS011;4727;51.202;6.344;2023-10-13T06:17:22;4.03;;;3.33;;
9374;SDS011;4727;51.202;6.344;2023-10-13T06:20:06;2.90;;;2.70;;
9374;SDS011;4727;51.202;6.344;2023-10-13T06:22:51;11.93;;;4.27;;
9374;SDS011;4727;51.202;6.344;2023-10-13T06:25:35;6.30;;;3.90;;
9374;SDS011;4727;51.202;6.344;2023-10-13T06:28:19;4.70;;;3.57;;
9374;SDS011;4727;51.202;6.344;2023-10-13T06:31:04;6.80;;;3.93;;
9374;SDS011;4727;51.202;6.344;2023-10-13T06:33:33;6.13;;;3.70;;
9374;SDS011;4727;51.202;6.344;2023-10-13T06:36:01;4.43;;;4.03;;
9374;SDS011;4727;51.202;6.344;2023-10-13T06:38:28;11.43;;;3.70;;
9374;SDS011;4727;51.202;6.344;2023-10-13T06:41:01;7.43;;;4.67;;
9374;SDS011;4727;51.202;6.344;2023-10-13T06:43:30;6.27;;;5.33;;
9374;SDS011;4727;51.202;6.344;2023-10-13T06:46:08;5.10;;;3.20;;
9374;SDS011;4727;51.202;6.344;2023-10-13T06:48:41;5.53;;;4.00;;
9374;SDS011;4727;51.202;6.344;2023-10-13T06:51:08;5.50;;;4.13;;
9374;SDS011;4727;51.202;6.344;2023-10-13T06:53:43;7.03;;;4.07;;
9374;SDS011;4727;51.202;6.344;2023-10-13T06:56:19;4.57;;;3.53;;
9374;SDS011;4727;51.202;6.344;2023-10-13T06:58:52;5.07;;;3.63;;
9374;SDS011;4727;51.202;6.344;2023-10-13T07:01:24;7.57;;;3.63;;
9374;SDS011;4727;51.202;6.344;2023-10-13T07:03:52;4.20;;;3.80;;
9374;SDS011;4727;51.202;6.344;2023-10-13T07:06:21;5.87;;;3.80;;
9374;SDS011;4727;51.202;6.344;2023-10-13T07:08:47;5.67;;;3.70;;
9374;SDS011;4727;51.202;6.344;2023-10-13T07:11:24;7.30;;;3.50;;
9374;SDS011;4727;51.202;6.344;2023-10-13T07:14:03;6.70;;;3.57;;
9374;SDS011;4727;51.202;6.344;2023-10-13T07:16:55;4.50;;;3.60;;
9374;SDS011;4727;51.202;6.344;2023-10-13T07:19:27;6.30;;;3.97;;
9374;SDS011;4727;51.202;6.344;2023-10-13T07:22:00;6.53;;;3.63;;
9374;SDS011;4727;51.202;6.344;2023-10-13T07:24:46;4.03;;;3.53;;
9374;SDS011;4727;51.202;6.344;2023-10-13T07:27:14;13.03;;;4.20;;
9374;SDS011;4727;51.202;6.344;2023-10-13T07:29:50;5.83;;;4.50;;
9374;SDS011;4727;51.202;6.344;2023-10-13T07:32:35;5.17;;;4.07;;
9374;SDS011;4727;51.202;6.344;2023-10-13T07:35:00;5.20;;;3.87;;
9374;SDS011;4727;51.202;6.344;2023-10-13T07:37:30;10.20;;;4.17;;
9374;SDS011;4727;51.202;6.344;2023-10-13T07:39:57;9.27;;;4.03;;
9374;SDS011;4727;51.202;6.344;2023-10-13T07:42:24;10.13;;;4.47;;
9374;SDS011;4727;51.202;6.344;2023-10-13T07:44:55;5.83;;;3.93;;
9374;SDS011;4727;51.202;6.344;2023-10-13T07:47:22;7.73;;;3.90;;
9374;SDS011;4727;51.202;6.344;2023-10-13T07:49:49;5.47;;;3.47;;
9374;SDS011;4727;51.202;6.344;2023-10-13T07:52:15;5.70;;;3.80;;
9374;SDS011;4727;51.202;6.344;2023-10-13T07:54:44;5.93;;;3.67;;
9374;SDS011;4727;51.202;6.344;2023-10-13T07:57:14;5.70;;;4.07;;
9374;SDS011;4727;51.202;6.344;2023-10-13T07:59:40;3.30;;;3.00;;
9374;SDS011;4727;51.202;6.344;2023-10-13T08:02:16;10.70;;;4.00;;
9374;SDS011;4727;51.202;6.344;2023-10-13T08:05:01;8.20;;;3.80;;
9374;SDS011;4727;51.202;6.344;2023-10-13T08:07:29;4.80;;;3.97;;
9374;SDS011;4727;51.202;6.344;2023-10-13T08:09:56;4.00;;;3.70;;
9374;SDS011;4727;51.202;6.344;2023-10-13T08:12:24;6.03;;;4.10;;
9374;SDS011;4727;51.202;6.344;2023-10-13T08:14:50;4.73;;;3.83;;
9374;SDS011;4727;51.202;6.344;2023-10-13T08:17:34;7.63;;;3.83;;
9374;SDS011;4727;51.202;6.344;2023-10-13T08:20:00;5.23;;;3.80;;
9374;SDS011;4727;51.202;6.344;2023-10-13T08:22:36;7.93;;;3.97;;
9374;SDS011;4727;51.202;6.344;2023-10-13T08:25:03;4.57;;;4.00;;
9374;SDS011;4727;51.202;6.344;2023-10-13T08:28:01;7.03;;;3.53;;
9374;SDS011;4727;51.202;6.344;2023-10-13T08:30:50;4.67;;;3.60;;
9374;SDS011;4727;51.202;6.344;2023-10-13T08:33:19;4.17;;;3.40;;
9374;SDS011;4727;51.202;6.344;2023-10-13T08:35:49;3.67;;;3.00;;
9374;SDS011;4727;51.202;6.344;2023-10-13T08:38:40;7.33;;;3.40;;
9374;SDS011;4727;51.202;6.344;2023-10-13T08:41:16;6.20;;;3.60;;
9374;SDS011;4727;51.202;6.344;2023-10-13T08:43:44;6.50;;;3.30;;
9374;SDS011;4727;51.202;6.344;2023-10-13T08:46:15;3.60;;;3.30;;
9374;SDS011;4727;51.202;6.344;2023-10-13T08:48:57;3.97;;;3.27;;
9374;SDS011;4727;51.202;6.344;2023-10-13T08:51:34;6.27;;;3.43;;
9374;SDS011;4727;51.202;6.344;2023-10-13T08:54:14;3.77;;;3.40;;
9374;SDS011;4727;51.202;6.344;2023-10-13T08:56:59;3.83;;;3.37;;
9374;SDS011;4727;51.202;6.344;2023-10-13T08:59:44;6.63;;;3.50;;
9374;SDS011;4727;51.202;6.344;2023-10-13T09:02:18;5.20;;;3.70;;
9374;SDS011;4727;51.202;6.344;2023-10-13T09:04:51;8.93;;;3.50;;
9374;SDS011;4727;51.202;6.344;2023-10-13T09:07:43;3.77;;;3.43;;
9374;SDS011;4727;51.202;6.344;2023-10-13T09:10:12;5.90;;;3.33;;
9374;SDS011;4727;51.202;6.344;2023-10-13T09:12:57;6.90;;;3.83;;
9374;SDS011;4727;51.202;6.344;2023-10-13T09:15:29;3.80;;;3.50;;
9374;SDS011;4727;51.202;6.344;2023-10-13T09:18:25;4.57;;;3.30;;
9374;SDS011;4727;51.202;6.344;2023-10-13T09:21:08;3.70;;;3.40;;
9374;SDS011;4727;51.202;6.344;2023-10-13T09:23:59;7.20;;;3.73;;
9374;SDS011;4727;51.202;6.344;2023-10-13T09:26:47;6.23;;;3.80;;
9374;SDS011;4727;51.202;6.344;2023-10-13T09:29:18;5.40;;;3.43;;
9374;SDS011;4727;51.202;6.344;2023-10-13T09:31:48;3.47;;;3.17;;
9374;SDS011;4727;51.202;6.344;2023-10-13T09:34:27;6.00;;;3.73;;
9374;SDS011;4727;51.202;6.344;2023-10-13T09:37:00;4.60;;;3.13;;
9374;SDS011;4727;51.202;6.344;2023-10-13T09:39:28;3.53;;;3.10;;
9374;SDS011;4727;51.202;6.344;2023-10-13T09:41:54;6.27;;;3.90;;
9374;SDS011;4727;51.202;6.344;2023-10-13T09:44:24;4.57;;;3.77;;
9374;SDS011;4727;51.202;6.344;2023-10-13T09:47:02;5.43;;;3.63;;
9374;SDS011;4727;51.202;6.344;2023-10-13T09:49:43;3.93;;;3.30;;
9374;SDS011;4727;51.202;6.344;2023-10-13T09:52:13;5.63;;;3.30;;
9374;SDS011;4727;51.202;6.344;2023-10-13T09:55:12;4.13;;;3.77;;
9374;SDS011;4727;51.202;6.344;2023-10-13T09:57:43;3.30;;;2.90;;
9374;SDS011;4727;51.202;6.344;2023-10-13T10:00:15;3.43;;;3.13;;
9374;SDS011;4727;51.202;6.344;2023-10-13T10:02:59;6.27;;;3.73;;
9374;SDS011;4727;51.202;6.344;2023-10-13T10:05:40;5.00;;;3.15;;
9374;SDS011;4727;51.202;6.344;2023-10-13T10:08:06;4.90;;;3.53;;
9374;SDS011;4727;51.202;6.344;2023-10-13T10:10:51;7.67;;;3.87;;
9374;SDS011;4727;51.202;6.344;2023-10-13T10:13:27;4.60;;;3.37;;
9374;SDS011;4727;51.202;6.344;2023-10-13T10:16:18;6.67;;;4.10;;
9374;SDS011;4727;51.202;6.344;2023-10-13T10:19:01;7.13;;;3.90;;
9374;SDS011;4727;51.202;6.344;2023-10-13T10:21:33;5.17;;;4.00;;
9374;SDS011;4727;51.202;6.344;2023-10-13T10:24:00;7.38;;;4.10;;
9374;SDS011;4727;51.202;6.344;2023-10-13T10:26:32;5.17;;;4.07;;
9374;SDS011;4727;51.202;6.344;2023-10-13T10:28:58;7.82;;;4.00;;
9374;SDS011;4727;51.202;6.344;2023-10-13T10:31:32;4.53;;;4.13;;
9374;SDS011;4727;51.202;6.344;2023-10-13T10:34:12;3.80;;;3.40;;
9374;SDS011;4727;51.202;6.344;2023-10-13T10:36:39;4.70;;;3.30;;
9374;SDS011;4727;51.202;6.344;2023-10-13T10:39:08;5.65;;;4.15;;
9374;SDS011;4727;51.202;6.344;2023-10-13T10:41:36;4.13;;;3.73;;
9374;SDS011;4727;51.202;6.344;2023-10-13T10:44:11;6.43;;;3.60;;
9374;SDS011;4727;51.202;6.344;2023-10-13T10:47:09;6.60;;;4.37;;
9374;SDS011;4727;51.202;6.344;2023-10-13T10:50:05;4.03;;;3.25;;
9374;SDS011;4727;51.202;6.344;2023-10-13T10:52:51;6.13;;;3.33;;
9374;SDS011;4727;51.202;6.344;2023-10-13T10:55:22;3.60;;;3.15;;
9374;SDS011;4727;51.202;6.344;2023-10-13T10:57:59;7.32;;;3.65;;
9374;SDS011;4727;51.202;6.344;2023-10-13T11:00:33;4.18;;;3.30;;
9374;SDS011;4727;51.202;6.344;2023-10-13T11:03:10;6.65;;;3.35;;
9374;SDS011;4727;51.202;6.344;2023-10-13T11:05:43;6.93;;;3.75;;
9374;SDS011;4727;51.202;6.344;2023-10-13T11:08:20;5.28;;;4.10;;
9374;SDS011;4727;51.202;6.344;2023-10-13T11:11:09;3.55;;;3.08;;
9374;SDS011;4727;51.202;6.344;2023-10-13T11:13:43;4.68;;;3.65;;
9374;SDS011;4727;51.202;6.344;2023-10-13T11:16:44;4.53;;;3.13;;
9374;SDS011;4727;51.202;6.344;2023-10-13T11:19:18;4.00;;;3.05;;
9374;SDS011;4727;51.202;6.344;2023-10-13T11:21:51;10.48;;;3.45;;
9374;SDS011;4727;51.202;6.344;2023-10-13T11:24:18;4.22;;;2.70;;
9374;SDS011;4727;51.202;6.344;2023-10-13T11:26:46;4.07;;;2.95;;
9374;SDS011;4727;51.202;6.344;2023-10-13T11:29:18;3.92;;;2.80;;
9374;SDS011;4727;51.202;6.344;2023-10-13T11:31:47;8.00;;;3.00;;
9374;SDS011;4727;51.202;6.344;2023-10-13T11:34:23;4.20;;;2.85;;
9374;SDS011;4727;51.202;6.344;2023-10-13T11:36:50;5.30;;;3.08;;
9374;SDS011;4727;51.202;6.344;2023-10-13T11:39:16;6.53;;;2.95;;
9374;SDS011;4727;51.202;6.344;2023-10-13T11:41:50;3.63;;;3.13;;
9374;SDS011;4727;51.202;6.344;2023-10-13T11:44:19;7.32;;;3.38;;
9374;SDS011;4727;51.202;6.344;2023-10-13T11:46:45;4.38;;;3.00;;
9374;SDS011;4727;51.202;6.344;2023-10-13T11:49:13;5.38;;;2.67;;
9374;SDS011;4727;51.202;6.344;2023-10-13T11:51:58;4.28;;;2.88;;
9374;SDS011;4727;51.202;6.344;2023-10-13T11:54:40;5.20;;;2.70;;
9374;SDS011;4727;51.202;6.344;2023-10-13T11:57:06;6.18;;;3.60;;
9374;SDS011;4727;51.202;6.344;2023-10-13T11:59:32;4.45;;;2.63;;
9374;SDS011;4727;51.202;6.344;2023-10-13T12:02:01;3.20;;;2.85;;
9374;SDS011;4727;51.202;6.344;2023-10-13T12:04:36;7.28;;;3.45;;
9374;SDS011;4727;51.202;6.344;2023-10-13T12:07:14;5.57;;;3.30;;
9374;SDS011;4727;51.202;6.344;2023-10-13T12:09:45;2.55;;;2.30;;
9374;SDS011;4727;51.202;6.344;2023-10-13T12:12:20;3.85;;;2.97;;
9374;SDS011;4727;51.202;6.344;2023-10-13T12:14:49;5.50;;;3.70;;
9374;SDS011;4727;51.202;6.344;2023-10-13T12:17:19;5.57;;;3.10;;
9374;SDS011;4727;51.202;6.344;2023-10-13T12:20:01;4.95;;;3.25;;
9374;SDS011;4727;51.202;6.344;2023-10-13T12:22:34;8.00;;;3.05;;
9374;SDS011;4727;51.202;6.344;2023-10-13T12:25:01;4.65;;;3.13;;
9374;SDS011;4727;51.202;6.344;2023-10-13T12:27:30;7.60;;;3.83;;
9374;SDS011;4727;51.202;6.344;2023-10-13T12:30:11;7.30;;;4.43;;
9374;SDS011;4727;51.202;6.344;2023-10-13T12:32:39;5.00;;;3.13;;
9374;SDS011;4727;51.202;6.344;2023-10-13T12:35:09;8.32;;;3.47;;
9374;SDS011;4727;51.202;6.344;2023-10-13T12:37:35;3.83;;;3.15;;
9374;SDS011;4727;51.202;6.344;2023-10-13T12:40:04;7.07;;;3.10;;
9374;SDS011;4727;51.202;6.344;2023-10-13T12:42:50;5.18;;;3.47;;
9374;SDS011;4727;51.202;6.344;2023-10-13T12:45:40;3.65;;;2.58;;
9374;SDS011;4727;51.202;6.344;2023-10-13T12:48:25;7.00;;;3.08;;
9374;SDS011;4727;51.202;6.344;2023-10-13T12:51:09;7.15;;;3.75;;
9374;SDS011;4727;51.202;6.344;2023-10-13T12:53:55;4.43;;;2.80;;
9374;SDS011;4727;51.202;6.344;2023-10-13T12:56:29;5.95;;;3.85;;
9374;SDS011;4727;51.202;6.344;2023-10-13T12:58:55;4.07;;;3.47;;
9374;SDS011;4727;51.202;6.344;2023-10-13T13:01:22;4.20;;;3.80;;
9374;SDS011;4727;51.202;6.344;2023-10-13T13:03:52;5.53;;;3.47;;
9374;SDS011;4727;51.202;6.344;2023-10-13T13:06:21;7.13;;;3.28;;
9374;SDS011;4727;51.202;6.344;2023-10-13T13:08:58;10.27;;;3.42;;
9374;SDS011;4727;51.202;6.344;2023-10-13T13:11:25;9.15;;;2.97;;
9374;SDS011;4727;51.202;6.344;2023-10-13T13:13:53;4.55;;;3.33;;
9374;SDS011;4727;51.202;6.344;2023-10-13T13:16:19;3.55;;;3.03;;
9374;SDS011;4727;51.202;6.344;2023-10-13T13:18:52;7.25;;;3.00;;
9374;SDS011;4727;51.202;6.344;2023-10-13T13:21:20;5.50;;;3.60;;
9374;SDS011;4727;51.202;6.344;2023-10-13T13:23:49;6.32;;;3.42;;
9374;SDS011;4727;51.202;6.344;2023-10-13T13:26:15;10.70;;;3.72;;
9374;SDS011;4727;51.202;6.344;2023-10-13T13:28:44;5.55;;;3.42;;
9374;SDS011;4727;51.202;6.344;2023-10-13T13:31:10;9.45;;;3.65;;
9374;SDS011;4727;51.202;6.344;2023-10-13T13:33:40;3.83;;;3.47;;
9374;SDS011;4727;51.202;6.344;2023-10-13T13:36:08;7.25;;;3.63;;
9374;SDS011;4727;51.202;6.344;2023-10-13T13:38:39;7.88;;;3.10;;
9374;SDS011;4727;51.202;6.344;2023-10-13T13:41:05;3.35;;;2.95;;
9374;SDS011;4727;51.202;6.344;2023-10-13T13:43:48;4.40;;;2.83;;
9374;SDS011;4727;51.202;6.344;2023-10-13T13:46:15;6.50;;;3.53;;
9374;SDS011;4727;51.202;6.344;2023-10-13T13:48:44;6.07;;;3.25;;
9374;SDS011;4727;51.202;6.344;2023-10-13T13:51:12;9.07;;;3.38;;
9374;SDS011;4727;51.202;6.344;2023-10-13T13:53:44;5.88;;;3.35;;
9374;SDS011;4727;51.202;6.344;2023-10-13T13:56:13;4.40;;;3.35;;
9374;SDS011;4727;51.202;6.344;2023-10-13T13:58:44;3.63;;;2.63;;
9374;SDS011;4727;51.202;6.344;2023-10-13T14:01:14;7.18;;;3.10;;
9374;SDS011;4727;51.202;6.344;2023-10-13T14:03:43;3.65;;;2.83;;
9374;SDS011;4727;51.202;6.344;2023-10-13T14:06:20;4.85;;;2.95;;
9374;SDS011;4727;51.202;6.344;2023-10-13T14:08:48;5.20;;;3.45;;
9374;SDS011;4727;51.202;6.344;2023-10-13T14:11:16;6.85;;;3.10;;
9374;SDS011;4727;51.202;6.344;2023-10-13T14:14:01;5.07;;;3.67;;
9374;SDS011;4727;51.202;6.344;2023-10-13T14:16:29;4.13;;;2.72;;
9374;SDS011;4727;51.202;6.344;2023-10-13T14:18:58;4.03;;;3.63;;
9374;SDS011;4727;51.202;6.344;2023-10-13T14:21:26;5.30;;;2.70;;
9374;SDS011;4727;51.202;6.344;2023-10-13T14:23:52;4.45;;;2.88;;
9374;SDS011;4727;51.202;6.344;2023-10-13T14:26:19;6.18;;;3.17;;
9374;SDS011;4727;51.202;6.344;2023-10-13T14:28:49;5.60;;;2.80;;
9374;SDS011;4727;51.202;6.344;2023-10-13T14:31:25;7.30;;;3.28;;
9374;SDS011;4727;51.202;6.344;2023-10-13T14:33:54;3.85;;;2.40;;
9374;SDS011;4727;51.202;6.344;2023-10-13T14:36:20;8.27;;;3.05;;
9374;SDS011;4727;51.202;6.344;2023-10-13T14:38:49;8.15;;;3.10;;
9374;SDS011;4727;51.202;6.344;2023-10-13T14:41:17;3.92;;;2.80;;
9374;SDS011;4727;51.202;6.344;2023-10-13T14:43:44;7.18;;;3.20;;
9374;SDS011;4727;51.202;6.344;2023-10-13T14:46:19;3.60;;;2.85;;
9374;SDS011;4727;51.202;6.344;2023-10-13T14:48:51;2.83;;;2.63;;
9374;SDS011;4727;51.202;6.344;2023-10-13T14:51:17;3.70;;;3.17;;
9374;SDS011;4727;51.202;6.344;2023-10-13T14:53:43;4.40;;;2.50;;
9374;SDS011;4727;51.202;6.344;2023-10-13T14:56:12;5.53;;;3.25;;
9374;SDS011;4727;51.202;6.344;2023-10-13T14:58:39;6.18;;;3.28;;
9374;SDS011;4727;51.202;6.344;2023-10-13T15:01:17;3.00;;;2.80;;
9374;SDS011;4727;51.202;6.344;2023-10-13T15:03:45;3.07;;;2.80;;
9374;SDS011;4727;51.202;6.344;2023-10-13T15:06:18;3.10;;;2.80;;
9374;SDS011;4727;51.202;6.344;2023-10-13T15:08:55;6.40;;;3.33;;
9374;SDS011;4727;51.202;6.344;2023-10-13T15:11:22;3.03;;;2.60;;
9374;SDS011;4727;51.202;6.344;2023-10-13T15:13:55;3.90;;;3.40;;
9374;SDS011;4727;51.202;6.344;2023-10-13T15:16:24;5.85;;;3.30;;
9374;SDS011;4727;51.202;6.344;2023-10-13T15:18:52;4.35;;;3.33;;
9374;SDS011;4727;51.202;6.344;2023-10-13T15:21:18;6.83;;;3.67;;
9374;SDS011;4727;51.202;6.344;2023-10-13T15:23:48;5.55;;;2.67;;
9374;SDS011;4727;51.202;6.344;2023-10-13T15:26:16;2.88;;;2.60;;
9374;SDS011;4727;51.202;6.344;2023-10-13T15:28:48;4.63;;;3.10;;
9374;SDS011;4727;51.202;6.344;2023-10-13T15:31:16;4.45;;;2.95;;
9374;SDS011;4727;51.202;6.344;2023-10-13T15:33:51;4.55;;;2.58;;
9374;SDS011;4727;51.202;6.344;2023-10-13T15:36:19;3.63;;;2.53;;
9374;SDS011;4727;51.202;6.344;2023-10-13T15:38:50;3.13;;;2.80;;
9374;SDS011;4727;51.202;6.344;2023-10-13T15:41:24;6.03;;;3.40;;
9374;SDS011;4727;51.202;6.344;2023-10-13T15:43:50;4.32;;;2.80;;
9374;SDS011;4727;51.202;6.344;2023-10-13T15:46:17;2.83;;;2.60;;
9374;SDS011;4727;51.202;6.344;2023-10-13T15:48:47;3.37;;;2.53;;
9374;SDS011;4727;51.202;6.344;2023-10-13T15:51:13;2.83;;;2.63;;
9374;SDS011;4727;51.202;6.344;2023-10-13T15:53:39;7.53;;;2.92;;
9374;SDS011;4727;51.202;6.344;2023-10-13T15:56:06;7.20;;;3.20;;